sensor_id;sensor_type;location;lat;lon;timestamp;pressure;altitude;pressure_sealevel;temperature;humidity
73692;BME280;61996;49.910;35.562;2023-06-24T00:00:19;98995.00;;;23.69;59.64
73692;BME280;61996;49.910;35.562;2023-06-24T00:03:22;99001.41;;;23.68;59.75
73692;BME280;61996;49.910;35.562;2023-06-24T00:06:25;98999.75;;;23.67;59.81
73692;BME280;61996;49.910;35.562;2023-06-24T00:09:28;99002.72;;;23.72;59.33
73692;BME280;61996;49.910;35.562;2023-06-24T00:12:31;98999.00;;;23.73;59.16
73692;BME280;61996;49.910;35.562;2023-06-24T00:15:35;98997.34;;;23.72;59.50
73692;BME280;61996;49.910;35.562;2023-06-24T00:18:38;98997.03;;;23.82;59.31
73692;BME280;61996;49.910;35.562;2023-06-24T00:21:43;98993.06;;;23.92;58.91
73692;BME280;61996;49.910;35.562;2023-06-24T00:24:46;98991.28;;;23.85;59.23
73692;BME280;61996;49.910;35.562;2023-06-24T00:27:49;98991.38;;;23.91;58.64
73692;BME280;61996;49.910;35.562;2023-06-24T00:30:54;98990.09;;;23.87;58.93
73692;BME280;61996;49.910;35.562;2023-06-24T00:33:56;98986.84;;;23.77;59.34
73692;BME280;61996;49.910;35.562;2023-06-24T00:36:59;98990.47;;;23.84;59.42
73692;BME280;61996;49.910;35.562;2023-06-24T00:40:05;98997.13;;;23.88;59.30
73692;BME280;61996;49.910;35.562;2023-06-24T00:43:16;98977.69;;;23.86;59.40
73692;BME280;61996;49.910;35.562;2023-06-24T00:46:20;98973.50;;;23.84;59.58
73692;BME280;61996;49.910;35.562;2023-06-24T00:49:26;98975.19;;;23.85;59.23
73692;BME280;61996;49.910;35.562;2023-06-24T00:52:29;98975.09;;;23.78;59.70
73692;BME280;61996;49.910;35.562;2023-06-24T00:55:32;98978.16;;;23.75;59.62
73692;BME280;61996;49.910;35.562;2023-06-24T00:58:36;98973.31;;;23.85;59.41
73692;BME280;61996;49.910;35.562;2023-06-24T01:01:41;98967.41;;;24.26;57.41
73692;BME280;61996;49.910;35.562;2023-06-24T01:04:47;98955.19;;;24.38;57.31
73692;BME280;61996;49.910;35.562;2023-06-24T01:07:52;98954.53;;;24.36;56.95
73692;BME280;61996;49.910;35.562;2023-06-24T01:10:57;98960.56;;;24.38;57.08
73692;BME280;61996;49.910;35.562;2023-06-24T01:14:00;98974.25;;;24.43;56.83
73692;BME280;61996;49.910;35.562;2023-06-24T01:17:05;98969.25;;;24.40;56.64
73692;BME280;61996;49.910;35.562;2023-06-24T01:20:11;98978.22;;;24.47;56.38
73692;BME280;61996;49.910;35.562;2023-06-24T01:23:25;98974.69;;;24.47;56.53
73692;BME280;61996;49.910;35.562;2023-06-24T01:26:52;98993.50;;;24.47;56.35
73692;BME280;61996;49.910;35.562;2023-06-24T01:30:10;98999.72;;;24.47;55.99
73692;BME280;61996;49.910;35.562;2023-06-24T01:33:19;99002.88;;;24.51;56.31
73692;BME280;61996;49.910;35.562;2023-06-24T01:36:27;99003.69;;;24.51;56.24
73692;BME280;61996;49.910;35.562;2023-06-24T01:39:31;99008.25;;;24.51;56.04
73692;BME280;61996;49.910;35.562;2023-06-24T01:42:37;99013.16;;;24.47;56.08
73692;BME280;61996;49.910;35.562;2023-06-24T01:45:41;99007.41;;;24.50;56.25
73692;BME280;61996;49.910;35.562;2023-06-24T01:48:46;99008.03;;;24.52;56.12
73692;BME280;61996;49.910;35.562;2023-06-24T01:51:49;99014.06;;;24.54;56.11
73692;BME280;61996;49.910;35.562;2023-06-24T01:54:52;98996.25;;;24.53;55.82
73692;BME280;61996;49.910;35.562;2023-06-24T01:57:56;98996.47;;;24.52;55.85
73692;BME280;61996;49.910;35.562;2023-06-24T02:00:59;98995.63;;;24.51;55.87
73692;BME280;61996;49.910;35.562;2023-06-24T02:04:05;99003.50;;;24.53;55.63
73692;BME280;61996;49.910;35.562;2023-06-24T02:07:09;99003.97;;;24.56;55.91
73692;BME280;61996;49.910;35.562;2023-06-24T02:10:13;99012.03;;;24.56;55.95
73692;BME280;61996;49.910;35.562;2023-06-24T02:13:16;99002.47;;;24.54;55.92
73692;BME280;61996;49.910;35.562;2023-06-24T02:16:20;98993.56;;;24.53;56.01
73692;BME280;61996;49.910;35.562;2023-06-24T02:19:25;99003.97;;;24.56;55.78
73692;BME280;61996;49.910;35.562;2023-06-24T02:22:30;99015.53;;;24.57;55.67
73692;BME280;61996;49.910;35.562;2023-06-24T02:25:33;99020.09;;;24.56;55.80
73692;BME280;61996;49.910;35.562;2023-06-24T02:28:36;99017.41;;;24.56;55.62
73692;BME280;61996;49.910;35.562;2023-06-24T02:31:40;99017.41;;;24.56;55.77
73692;BME280;61996;49.910;35.562;2023-06-24T02:34:44;99013.88;;;24.56;55.57
73692;BME280;61996;49.910;35.562;2023-06-24T02:37:47;99007.47;;;24.57;55.94
73692;BME280;61996;49.910;35.562;2023-06-24T02:40:49;99007.47;;;24.57;55.54
73692;BME280;61996;49.910;35.562;2023-06-24T02:43:53;99003.97;;;24.56;55.47
73692;BME280;61996;49.910;35.562;2023-06-24T02:46:55;98999.63;;;24.55;55.56
73692;BME280;61996;49.910;35.562;2023-06-24T02:50:00;99000.44;;;24.56;55.78
73692;BME280;61996;49.910;35.562;2023-06-24T02:53:04;99001.47;;;24.55;55.69
73692;BME280;61996;49.910;35.562;2023-06-24T02:56:07;99000.25;;;24.57;55.72
73692;BME280;61996;49.910;35.562;2023-06-24T02:59:10;99003.75;;;24.58;55.40
73692;BME280;61996;49.910;35.562;2023-06-24T03:02:13;98998.38;;;24.58;55.69
73692;BME280;61996;49.910;35.562;2023-06-24T03:05:18;99001.06;;;24.58;55.46
73692;BME280;61996;49.910;35.562;2023-06-24T03:08:23;99002.75;;;24.59;55.59
73692;BME280;61996;49.910;35.562;2023-06-24T03:11:26;98993.44;;;24.61;55.48
73692;BME280;61996;49.910;35.562;2023-06-24T03:14:29;99002.19;;;24.64;55.50
73692;BME280;61996;49.910;35.562;2023-06-24T03:17:32;99007.34;;;24.65;55.77
73692;BME280;61996;49.910;35.562;2023-06-24T03:20:37;99014.59;;;24.65;55.74
73692;BME280;61996;49.910;35.562;2023-06-24T03:23:40;99020.59;;;24.67;55.89
73692;BME280;61996;49.910;35.562;2023-06-24T03:26:43;99012.72;;;24.65;55.93
73692;BME280;61996;49.910;35.562;2023-06-24T03:29:46;99013.19;;;24.69;55.42
73692;BME280;61996;49.910;35.562;2023-06-24T03:32:49;99016.72;;;24.69;55.55
73692;BME280;61996;49.910;35.562;2023-06-24T03:35:53;99012.78;;;24.72;55.47
73692;BME280;61996;49.910;35.562;2023-06-24T03:38:56;99016.50;;;24.71;55.47
73692;BME280;61996;49.910;35.562;2023-06-24T03:41:59;99018.19;;;24.72;55.34
73692;BME280;61996;49.910;35.562;2023-06-24T03:45:02;99025.00;;;24.74;55.68
73692;BME280;61996;49.910;35.562;2023-06-24T03:48:05;99021.50;;;24.74;55.50
73692;BME280;61996;49.910;35.562;2023-06-24T03:51:09;99022.16;;;24.76;55.69
73692;BME280;61996;49.910;35.562;2023-06-24T03:54:12;99025.47;;;24.78;55.89
73692;BME280;61996;49.910;35.562;2023-06-24T03:57:14;99026.09;;;24.80;55.79
73692;BME280;61996;49.910;35.562;2023-06-24T04:00:17;99028.78;;;24.80;55.85
73692;BME280;61996;49.910;35.562;2023-06-24T04:03:23;99029.25;;;24.83;55.72
73692;BME280;61996;49.910;35.562;2023-06-24T04:06:28;99026.56;;;24.83;55.74
73692;BME280;61996;49.910;35.562;2023-06-24T04:09:33;99031.56;;;24.86;55.53
73692;BME280;61996;49.910;35.562;2023-06-24T04:12:36;99028.50;;;24.90;55.05
73692;BME280;61996;49.910;35.562;2023-06-24T04:15:39;99037.41;;;24.90;55.34
73692;BME280;61996;49.910;35.562;2023-06-24T04:18:42;99037.00;;;24.93;55.29
73692;BME280;61996;49.910;35.562;2023-06-24T04:21:46;99038.84;;;24.93;55.62
73692;BME280;61996;49.910;35.562;2023-06-24T04:24:49;99037.63;;;24.95;55.16
73692;BME280;61996;49.910;35.562;2023-06-24T04:27:52;99043.84;;;24.96;55.09
73692;BME280;61996;49.910;35.562;2023-06-24T04:30:57;99047.81;;;25.00;54.94
73692;BME280;61996;49.910;35.562;2023-06-24T04:34:00;99049.69;;;24.99;55.12
73692;BME280;61996;49.910;35.562;2023-06-24T04:37:04;99049.69;;;24.99;55.04
73692;BME280;61996;49.910;35.562;2023-06-24T04:40:08;99055.06;;;24.99;54.88
73692;BME280;61996;49.910;35.562;2023-06-24T04:43:11;99050.31;;;25.01;54.39
73692;BME280;61996;49.910;35.562;2023-06-24T04:46:14;99049.28;;;25.02;54.17
73692;BME280;61996;49.910;35.562;2023-06-24T04:49:17;99042.53;;;25.06;53.74
73692;BME280;61996;49.910;35.562;2023-06-24T04:52:21;99037.78;;;25.08;53.51
73692;BME280;61996;49.910;35.562;2023-06-24T04:55:25;99038.63;;;25.09;53.35
73692;BME280;61996;49.910;35.562;2023-06-24T04:58:28;99047.50;;;25.09;53.65
73692;BME280;61996;49.910;35.562;2023-06-24T05:01:31;99050.19;;;25.09;53.05
73692;BME280;61996;49.910;35.562;2023-06-24T05:04:33;99048.34;;;25.10;53.17
73692;BME280;61996;49.910;35.562;2023-06-24T05:07:38;99048.81;;;25.13;52.26
73692;BME280;61996;49.910;35.562;2023-06-24T05:10:41;99055.22;;;25.12;53.37
73692;BME280;61996;49.910;35.562;2023-06-24T05:13:44;99057.72;;;25.14;53.44
73692;BME280;61996;49.910;35.562;2023-06-24T05:16:47;99049.44;;;25.15;53.17
73692;BME280;61996;49.910;35.562;2023-06-24T05:19:50;99047.19;;;25.19;52.17
73692;BME280;61996;49.910;35.562;2023-06-24T05:22:54;99051.56;;;25.20;51.90
73692;BME280;61996;49.910;35.562;2023-06-24T05:25:57;99054.25;;;25.20;52.02
73692;BME280;61996;49.910;35.562;2023-06-24T05:28:59;99059.06;;;25.25;51.95
73692;BME280;61996;49.910;35.562;2023-06-24T05:32:03;99039.97;;;25.20;56.51
73692;BME280;61996;49.910;35.562;2023-06-24T05:35:06;99045.34;;;25.20;55.72
73692;BME280;61996;49.910;35.562;2023-06-24T05:38:10;99049.88;;;25.19;54.73
73692;BME280;61996;49.910;35.562;2023-06-24T05:41:13;99037.91;;;25.22;53.04
73692;BME280;61996;49.910;35.562;2023-06-24T05:44:16;99040.66;;;25.28;52.28
73692;BME280;61996;49.910;35.562;2023-06-24T05:47:19;99037.13;;;25.28;52.20
73692;BME280;61996;49.910;35.562;2023-06-24T05:50:22;99045.00;;;25.29;51.99
73692;BME280;61996;49.910;35.562;2023-06-24T05:53:26;99036.09;;;25.29;52.48
73692;BME280;61996;49.910;35.562;2023-06-24T05:56:29;99045.66;;;25.31;51.86
73692;BME280;61996;49.910;35.562;2023-06-24T05:59:32;99041.28;;;25.30;51.70
73692;BME280;61996;49.910;35.562;2023-06-24T06:02:35;99039.41;;;25.31;53.18
73692;BME280;61996;49.910;35.562;2023-06-24T06:05:38;99041.09;;;25.32;51.92
73692;BME280;61996;49.910;35.562;2023-06-24T06:08:42;99047.09;;;25.34;52.35
73692;BME280;61996;49.910;35.562;2023-06-24T06:11:45;99045.44;;;25.33;51.84
73692;BME280;61996;49.910;35.562;2023-06-24T06:14:47;99040.91;;;25.33;52.07
73692;BME280;61996;49.910;35.562;2023-06-24T06:17:50;99039.88;;;25.34;52.04
73692;BME280;61996;49.910;35.562;2023-06-24T06:20:53;99043.38;;;25.35;52.13
73692;BME280;61996;49.910;35.562;2023-06-24T06:23:57;99041.31;;;25.37;52.98
73692;BME280;61996;49.910;35.562;2023-06-24T06:27:00;99045.88;;;25.36;52.02
73692;BME280;61996;49.910;35.562;2023-06-24T06:30:03;99058.31;;;25.37;51.95
73692;BME280;61996;49.910;35.562;2023-06-24T06:33:06;99051.91;;;25.38;51.84
73692;BME280;61996;49.910;35.562;2023-06-24T06:36:09;99061.44;;;25.41;52.17
73692;BME280;61996;49.910;35.562;2023-06-24T06:39:13;99057.72;;;25.42;51.88
73692;BME280;61996;49.910;35.562;2023-06-24T06:42:16;99060.41;;;25.42;52.22
73692;BME280;61996;49.910;35.562;2023-06-24T06:45:19;99061.25;;;25.42;51.67
73692;BME280;61996;49.910;35.562;2023-06-24T06:48:21;99059.38;;;25.43;51.94
73692;BME280;61996;49.910;35.562;2023-06-24T06:51:24;99069.94;;;25.45;51.80
73692;BME280;61996;49.910;35.562;2023-06-24T06:54:28;99061.88;;;25.45;51.80
73692;BME280;61996;49.910;35.562;2023-06-24T06:57:31;99063.13;;;25.42;51.70
73692;BME280;61996;49.910;35.562;2023-06-24T07:00:34;99065.81;;;25.42;52.92
73692;BME280;61996;49.910;35.562;2023-06-24T07:03:36;99065.41;;;25.45;52.35
73692;BME280;61996;49.910;35.562;2023-06-24T07:06:39;99068.56;;;25.49;52.56
73692;BME280;61996;49.910;35.562;2023-06-24T07:09:43;99065.03;;;25.48;52.18
73692;BME280;61996;49.910;35.562;2023-06-24T07:12:47;99059.66;;;25.48;52.72
73692;BME280;61996;49.910;35.562;2023-06-24T07:15:50;99072.28;;;25.48;52.40
73692;BME280;61996;49.910;35.562;2023-06-24T07:18:53;99067.91;;;25.47;52.20
73692;BME280;61996;49.910;35.562;2023-06-24T07:21:55;99065.22;;;25.47;52.25
73692;BME280;61996;49.910;35.562;2023-06-24T07:24:59;99066.06;;;25.47;52.20
73692;BME280;61996;49.910;35.562;2023-06-24T07:28:03;99065.22;;;25.47;52.00
73692;BME280;61996;49.910;35.562;2023-06-24T07:31:05;99065.03;;;25.48;52.22
73692;BME280;61996;49.910;35.562;2023-06-24T07:34:08;99075.38;;;25.51;52.38
73692;BME280;61996;49.910;35.562;2023-06-24T07:37:11;99072.06;;;25.49;52.86
73692;BME280;61996;49.910;35.562;2023-06-24T07:40:26;99059.25;;;25.51;51.92
73692;BME280;61996;49.910;35.562;2023-06-24T07:43:28;99059.25;;;25.51;52.03
73692;BME280;61996;49.910;35.562;2023-06-24T07:46:31;99068.34;;;25.50;51.95
73692;BME280;61996;49.910;35.562;2023-06-24T07:49:34;99065.66;;;25.50;51.77
73692;BME280;61996;49.910;35.562;2023-06-24T07:52:37;99068.16;;;25.52;51.75
73692;BME280;61996;49.910;35.562;2023-06-24T07:55:41;99070.00;;;25.51;52.05
73692;BME280;61996;49.910;35.562;2023-06-24T07:58:44;99070.84;;;25.52;51.82
73692;BME280;61996;49.910;35.562;2023-06-24T08:01:46;99075.00;;;25.54;52.22
73692;BME280;61996;49.910;35.562;2023-06-24T08:04:49;99071.28;;;25.55;52.01
73692;BME280;61996;49.910;35.562;2023-06-24T08:07:52;99072.94;;;25.56;52.24
73692;BME280;61996;49.910;35.562;2023-06-24T08:10:56;99071.28;;;25.55;52.31
73692;BME280;61996;49.910;35.562;2023-06-24T08:13:59;99072.13;;;25.56;52.50
73692;BME280;61996;49.910;35.562;2023-06-24T08:17:03;99077.97;;;25.59;51.71
73692;BME280;61996;49.910;35.562;2023-06-24T08:20:06;99077.50;;;25.56;51.80
73692;BME280;61996;49.910;35.562;2023-06-24T08:23:09;99061.34;;;25.56;52.56
73692;BME280;61996;49.910;35.562;2023-06-24T08:26:13;99067.19;;;25.59;52.12
73692;BME280;61996;49.910;35.562;2023-06-24T08:29:18;99069.22;;;25.57;52.38
73692;BME280;61996;49.910;35.562;2023-06-24T08:32:21;99068.41;;;25.57;52.06
73692;BME280;61996;49.910;35.562;2023-06-24T08:35:24;99067.19;;;25.59;51.87
73692;BME280;61996;49.910;35.562;2023-06-24T08:38:27;99065.50;;;25.58;51.85
73692;BME280;61996;49.910;35.562;2023-06-24T08:41:37;99067.19;;;25.59;51.75
73692;BME280;61996;49.910;35.562;2023-06-24T08:44:42;99074.03;;;25.62;52.18
73692;BME280;61996;49.910;35.562;2023-06-24T08:47:45;99075.69;;;25.63;51.81
73692;BME280;61996;49.910;35.562;2023-06-24T08:50:51;99076.72;;;25.62;51.88
73692;BME280;61996;49.910;35.562;2023-06-24T08:53:54;99075.50;;;25.64;52.00
73692;BME280;61996;49.910;35.562;2023-06-24T08:56:58;99076.31;;;25.65;51.38
73692;BME280;61996;49.910;35.562;2023-06-24T09:00:03;99072.81;;;25.64;51.48
73692;BME280;61996;49.910;35.562;2023-06-24T09:03:06;99069.28;;;25.64;51.63
73692;BME280;61996;49.910;35.562;2023-06-24T09:06:09;99081.72;;;25.65;52.08
73692;BME280;61996;49.910;35.562;2023-06-24T09:09:18;99064.72;;;25.64;52.04
73692;BME280;61996;49.910;35.562;2023-06-24T09:12:24;99068.91;;;25.67;51.82
73692;BME280;61996;49.910;35.562;2023-06-24T09:15:29;99070.75;;;25.66;51.99
73692;BME280;61996;49.910;35.562;2023-06-24T09:18:33;99065.16;;;25.68;52.02
73692;BME280;61996;49.910;35.562;2023-06-24T09:21:36;99066.00;;;25.68;52.01
73692;BME280;61996;49.910;35.562;2023-06-24T09:24:40;99057.28;;;25.66;51.83
73692;BME280;61996;49.910;35.562;2023-06-24T09:27:48;99060.63;;;25.68;51.43
73692;BME280;61996;49.910;35.562;2023-06-24T09:31:03;99052.13;;;25.72;51.52
73692;BME280;61996;49.910;35.562;2023-06-24T09:34:19;99049.63;;;25.70;51.56
73692;BME280;61996;49.910;35.562;2023-06-24T09:37:22;99051.31;;;25.71;51.78
73692;BME280;61996;49.910;35.562;2023-06-24T09:40:25;99045.75;;;25.73;51.56
73692;BME280;61996;49.910;35.562;2023-06-24T09:43:34;99055.09;;;25.77;51.11
73692;BME280;61996;49.910;35.562;2023-06-24T09:46:40;99055.50;;;25.74;51.17
73692;BME280;61996;49.910;35.562;2023-06-24T09:49:43;99066.75;;;25.84;51.95
73692;BME280;61996;49.910;35.562;2023-06-24T09:52:46;99054.69;;;25.80;51.35
73692;BME280;61996;49.910;35.562;2023-06-24T09:55:50;99066.13;;;25.82;51.16
73692;BME280;61996;49.910;35.562;2023-06-24T09:58:55;99058.88;;;25.82;51.31
73692;BME280;61996;49.910;35.562;2023-06-24T10:01:59;99066.31;;;25.80;51.42
73692;BME280;61996;49.910;35.562;2023-06-24T10:05:02;99068.00;;;25.81;51.25
73692;BME280;61996;49.910;35.562;2023-06-24T10:08:06;99068.03;;;25.88;51.26
73692;BME280;61996;49.910;35.562;2023-06-24T10:11:09;99068.19;;;25.86;51.22
73692;BME280;61996;49.910;35.562;2023-06-24T10:14:13;99075.28;;;25.87;51.12
73692;BME280;61996;49.910;35.562;2023-06-24T10:17:17;99072.75;;;25.86;51.30
73692;BME280;61996;49.910;35.562;2023-06-24T10:20:23;99080.00;;;25.85;51.15
73692;BME280;61996;49.910;35.562;2023-06-24T10:23:29;99070.06;;;25.86;51.14
73692;BME280;61996;49.910;35.562;2023-06-24T10:26:35;99066.34;;;25.87;50.98
73692;BME280;61996;49.910;35.562;2023-06-24T10:29:40;99064.06;;;25.84;51.05
73692;BME280;61996;49.910;35.562;2023-06-24T10:32:46;99073.59;;;25.86;51.13
73692;BME280;61996;49.910;35.562;2023-06-24T10:35:53;99066.34;;;25.87;50.91
73692;BME280;61996;49.910;35.562;2023-06-24T10:38:56;99052.25;;;25.85;50.92
73692;BME280;61996;49.910;35.562;2023-06-24T10:42:01;99062.81;;;25.86;51.55
73692;BME280;61996;49.910;35.562;2023-06-24T10:45:25;99063.88;;;25.92;50.96
73692;BME280;61996;49.910;35.562;2023-06-24T10:48:28;99065.97;;;25.90;51.16
73692;BME280;61996;49.910;35.562;2023-06-24T10:51:30;99065.56;;;25.93;51.44
73692;BME280;61996;49.910;35.562;2023-06-24T10:54:33;99050.25;;;26.00;51.11
73692;BME280;61996;49.910;35.562;2023-06-24T10:57:36;99051.47;;;25.91;50.95
73692;BME280;61996;49.910;35.562;2023-06-24T11:00:41;99044.66;;;25.95;51.39
73692;BME280;61996;49.910;35.562;2023-06-24T11:03:46;99038.47;;;26.01;51.48
73692;BME280;61996;49.910;35.562;2023-06-24T11:06:56;99041.38;;;26.06;51.19
73692;BME280;61996;49.910;35.562;2023-06-24T11:10:01;99030.38;;;26.01;51.16
73692;BME280;61996;49.910;35.562;2023-06-24T11:13:06;99033.53;;;26.11;51.54
73692;BME280;61996;49.910;35.562;2023-06-24T11:16:10;99031.44;;;26.07;52.26
73692;BME280;61996;49.910;35.562;2023-06-24T11:19:13;99023.16;;;26.08;51.54
73692;BME280;61996;49.910;35.562;2023-06-24T11:22:16;99027.72;;;26.08;51.60
73692;BME280;61996;49.910;35.562;2023-06-24T11:25:21;99027.53;;;26.09;51.03
73692;BME280;61996;49.910;35.562;2023-06-24T11:28:24;99016.31;;;26.12;52.02
73692;BME280;61996;49.910;35.562;2023-06-24T11:31:29;99026.47;;;26.10;50.92
73692;BME280;61996;49.910;35.562;2023-06-24T11:34:34;99019.63;;;26.14;51.25
73692;BME280;61996;49.910;35.562;2023-06-24T11:37:40;99017.34;;;26.11;51.28
73692;BME280;61996;49.910;35.562;2023-06-24T11:40:43;99010.69;;;26.07;51.03
73692;BME280;61996;49.910;35.562;2023-06-24T11:43:50;99004.31;;;26.08;50.84
73692;BME280;61996;49.910;35.562;2023-06-24T11:46:54;99007.63;;;26.10;51.14
73692;BME280;61996;49.910;35.562;2023-06-24T11:50:06;99005.75;;;26.11;50.78
73692;BME280;61996;49.910;35.562;2023-06-24T11:53:10;99003.25;;;26.09;51.02
73692;BME280;61996;49.910;35.562;2023-06-24T11:56:12;99012.81;;;26.12;51.15
73692;BME280;61996;49.910;35.562;2023-06-24T11:59:16;98995.81;;;26.11;51.08
73692;BME280;61996;49.910;35.562;2023-06-24T12:02:21;98986.88;;;26.11;50.95
73692;BME280;61996;49.910;35.562;2023-06-24T12:05:24;98987.50;;;26.13;51.02
73692;BME280;61996;49.910;35.562;2023-06-24T12:08:30;98979.44;;;26.13;50.91
73692;BME280;61996;49.910;35.562;2023-06-24T12:11:52;98979.63;;;26.11;50.66
73692;BME280;61996;49.910;35.562;2023-06-24T12:14:55;98982.94;;;26.13;50.70
73692;BME280;61996;49.910;35.562;2023-06-24T12:17:59;98984.59;;;26.14;50.62
73692;BME280;61996;49.910;35.562;2023-06-24T12:21:03;98983.78;;;26.14;50.61
73692;BME280;61996;49.910;35.562;2023-06-24T12:24:06;98981.91;;;26.14;50.52
73692;BME280;61996;49.910;35.562;2023-06-24T12:27:10;98979.03;;;26.16;50.60
73692;BME280;61996;49.910;35.562;2023-06-24T12:30:12;98969.09;;;26.16;50.36
73692;BME280;61996;49.910;35.562;2023-06-24T12:33:19;98971.78;;;26.16;50.60
73692;BME280;61996;49.910;35.562;2023-06-24T12:36:24;98981.72;;;26.16;50.58
73692;BME280;61996;49.910;35.562;2023-06-24T12:39:26;98974.47;;;26.16;50.55
73692;BME280;61996;49.910;35.562;2023-06-24T12:42:29;98974.47;;;26.16;50.25
73692;BME280;61996;49.910;35.562;2023-06-24T12:45:32;98977.38;;;26.21;50.19
73692;BME280;61996;49.910;35.562;2023-06-24T12:48:36;98978.84;;;26.17;50.35
73692;BME280;61996;49.910;35.562;2023-06-24T12:51:39;98981.53;;;26.17;50.18
73692;BME280;61996;49.910;35.562;2023-06-24T12:54:42;98982.16;;;26.19;50.42
73692;BME280;61996;49.910;35.562;2023-06-24T12:57:45;98973.44;;;26.17;50.41
73692;BME280;61996;49.910;35.562;2023-06-24T13:00:47;98985.06;;;26.18;50.13
73692;BME280;61996;49.910;35.562;2023-06-24T13:03:52;98983.19;;;26.18;50.30
73692;BME280;61996;49.910;35.562;2023-06-24T13:06:54;98977.78;;;26.18;50.11
73692;BME280;61996;49.910;35.562;2023-06-24T13:09:57;98988.56;;;26.18;49.98
73692;BME280;61996;49.910;35.562;2023-06-24T13:13:01;98985.88;;;26.18;50.34
73692;BME280;61996;49.910;35.562;2023-06-24T13:16:04;98978.84;;;26.17;49.99
73692;BME280;61996;49.910;35.562;2023-06-24T13:19:08;98975.94;;;26.19;50.21
73692;BME280;61996;49.910;35.562;2023-06-24T13:22:11;98982.97;;;26.20;50.00
73692;BME280;61996;49.910;35.562;2023-06-24T13:25:13;98974.06;;;26.19;50.27
73692;BME280;61996;49.910;35.562;2023-06-24T13:28:17;98980.28;;;26.20;49.77
73692;BME280;61996;49.910;35.562;2023-06-24T13:31:20;98979.44;;;26.19;49.90
73692;BME280;61996;49.910;35.562;2023-06-24T13:34:26;98984.63;;;26.21;49.62
73692;BME280;61996;49.910;35.562;2023-06-24T13:37:29;98982.16;;;26.19;50.25
73692;BME280;61996;49.910;35.562;2023-06-24T13:40:31;98974.88;;;26.20;50.02
73692;BME280;61996;49.910;35.562;2023-06-24T13:43:35;98980.28;;;26.20;50.03
73692;BME280;61996;49.910;35.562;2023-06-24T13:46:38;98980.06;;;26.21;49.72
73692;BME280;61996;49.910;35.562;2023-06-24T13:49:42;98973.69;;;26.22;49.65
73692;BME280;61996;49.910;35.562;2023-06-24T13:52:45;98977.38;;;26.21;49.95
73692;BME280;61996;49.910;35.562;2023-06-24T13:55:48;98977.38;;;26.21;49.83
73692;BME280;61996;49.910;35.562;2023-06-24T13:58:51;98983.22;;;26.25;49.75
73692;BME280;61996;49.910;35.562;2023-06-24T14:01:55;98979.06;;;26.22;49.92
73692;BME280;61996;49.910;35.562;2023-06-24T14:04:59;98979.72;;;26.38;49.94
73692;BME280;61996;49.910;35.562;2023-06-24T14:08:02;98973.88;;;26.28;49.91
73692;BME280;61996;49.910;35.562;2023-06-24T14:11:05;98981.34;;;26.26;49.99
73692;BME280;61996;49.910;35.562;2023-06-24T14:14:08;98983.03;;;26.33;52.36
73692;BME280;61996;49.910;35.562;2023-06-24T14:17:11;98977.00;;;26.31;50.47
73692;BME280;61996;49.910;35.562;2023-06-24T14:20:15;98974.53;;;26.30;50.83
73692;BME280;61996;49.910;35.562;2023-06-24T14:23:18;98975.75;;;26.34;51.38
73692;BME280;61996;49.910;35.562;2023-06-24T14:26:20;98974.72;;;26.35;52.49
73692;BME280;61996;49.910;35.562;2023-06-24T14:29:23;98986.53;;;26.34;51.73
73692;BME280;61996;49.910;35.562;2023-06-24T14:32:26;98989.91;;;26.42;52.61
73692;BME280;61996;49.910;35.562;2023-06-24T14:35:30;98982.84;;;26.41;51.81
73692;BME280;61996;49.910;35.562;2023-06-24T14:38:33;98983.91;;;26.40;52.25
73692;BME280;61996;49.910;35.562;2023-06-24T14:41:36;98985.94;;;26.38;52.36
73692;BME280;61996;49.910;35.562;2023-06-24T14:44:39;98992.59;;;26.36;51.97
73692;BME280;61996;49.910;35.562;2023-06-24T14:47:41;98983.03;;;26.33;51.36
73692;BME280;61996;49.910;35.562;2023-06-24T14:50:46;98995.66;;;26.33;51.10
73692;BME280;61996;49.910;35.562;2023-06-24T14:53:48;98991.72;;;26.29;50.84
73692;BME280;61996;49.910;35.562;2023-06-24T14:56:51;98992.97;;;26.33;51.66
73692;BME280;61996;49.910;35.562;2023-06-24T14:59:54;98983.22;;;26.32;51.11
73692;BME280;61996;49.910;35.562;2023-06-24T15:02:57;98989.47;;;26.39;51.96
73692;BME280;61996;49.910;35.562;2023-06-24T15:06:01;98982.81;;;26.35;51.12
73692;BME280;61996;49.910;35.562;2023-06-24T15:09:04;98985.31;;;26.30;51.30
73692;BME280;61996;49.910;35.562;2023-06-24T15:12:07;98972.47;;;26.38;51.64
73692;BME280;61996;49.910;35.562;2023-06-24T15:15:10;98986.78;;;26.39;51.20
73692;BME280;61996;49.910;35.562;2023-06-24T15:18:12;98980.53;;;26.32;51.15
73692;BME280;61996;49.910;35.562;2023-06-24T15:21:17;98973.47;;;26.31;50.96
73692;BME280;61996;49.910;35.562;2023-06-24T15:24:37;98982.41;;;26.38;51.59
73692;BME280;61996;49.910;35.562;2023-06-24T15:27:40;98981.81;;;26.36;51.37
73692;BME280;61996;49.910;35.562;2023-06-24T15:30:42;98990.28;;;26.33;51.14
73692;BME280;61996;49.910;35.562;2023-06-24T15:33:45;98985.31;;;26.36;51.05
73692;BME280;61996;49.910;35.562;2023-06-24T15:36:49;98981.81;;;26.42;51.22
73692;BME280;61996;49.910;35.562;2023-06-24T15:39:52;98976.25;;;26.44;51.07
73692;BME280;61996;49.910;35.562;2023-06-24T15:42:55;98977.25;;;26.36;50.70
73692;BME280;61996;49.910;35.562;2023-06-24T15:45:57;98985.50;;;26.35;50.93
73692;BME280;61996;49.910;35.562;2023-06-24T15:49:00;98980.94;;;26.35;50.96
73692;BME280;61996;49.910;35.562;2023-06-24T15:52:04;98973.28;;;26.39;50.82
73692;BME280;61996;49.910;35.562;2023-06-24T15:55:08;98966.63;;;26.28;50.87
73692;BME280;61996;49.910;35.562;2023-06-24T15:58:11;98964.16;;;26.33;50.57
73692;BME280;61996;49.910;35.562;2023-06-24T16:01:13;98979.28;;;26.34;50.76